createdAt,value
2017-10-03T00:00:30.376Z,16.76
2017-10-03T00:01:30.541Z,16.71
2017-10-03T00:02:30.534Z,16.74
2017-10-03T00:03:30.852Z,16.68
2017-10-03T00:04:30.536Z,16.68
2017-10-03T00:05:30.849Z,16.64
2017-10-03T00:06:30.841Z,16.54
2017-10-03T00:07:30.537Z,16.56
2017-10-03T00:08:30.537Z,16.54
2017-10-03T00:09:30.854Z,16.54
2017-10-03T00:10:30.849Z,16.54
2017-10-03T00:11:30.846Z,16.54
2017-10-03T00:12:30.846Z,16.57
2017-10-03T00:13:30.540Z,16.6
2017-10-03T00:14:30.545Z,16.58
2017-10-03T00:15:31.035Z,16.64
2017-10-03T00:16:30.540Z,16.61
2017-10-03T00:17:30.539Z,16.6
2017-10-03T00:18:30.857Z,16.56
2017-10-03T00:19:30.547Z,16.58
2017-10-03T00:20:30.542Z,16.57
2017-10-03T00:21:30.863Z,16.58
2017-10-03T00:22:30.549Z,16.61
2017-10-03T00:23:30.542Z,16.58
2017-10-03T00:24:30.854Z,16.6
2017-10-03T00:25:30.552Z,16.6
2017-10-03T00:26:30.233Z,16.66
2017-10-03T00:27:30.544Z,16.61
2017-10-03T00:28:30.232Z,16.61
2017-10-03T00:29:30.851Z,16.6
2017-10-03T00:30:31.863Z,16.6
2017-10-03T00:31:30.542Z,16.6
2017-10-03T00:32:30.858Z,16.66
2017-10-03T00:33:30.545Z,16.57
2017-10-03T00:34:30.860Z,16.53
2017-10-03T00:35:30.549Z,16.53
2017-10-03T00:36:30.865Z,16.54
2017-10-03T00:37:30.545Z,16.53
2017-10-03T00:38:30.549Z,16.54
2017-10-03T00:39:30.866Z,16.54
2017-10-03T00:40:30.551Z,16.54
2017-10-03T00:41:30.867Z,16.49
2017-10-03T00:42:30.853Z,16.43
2017-10-03T00:43:30.855Z,16.46
2017-10-03T00:44:30.241Z,16.39
2017-10-03T00:45:30.560Z,16.43
2017-10-03T00:46:30.557Z,16.5
2017-10-03T00:47:30.553Z,16.5
2017-10-03T00:48:30.553Z,16.51
2017-10-03T00:49:30.553Z,16.46
2017-10-03T00:50:30.556Z,16.56
2017-10-03T00:51:30.568Z,16.57
2017-10-03T00:52:30.893Z,16.54
2017-10-03T00:53:30.560Z,16.61
2017-10-03T00:54:30.244Z,16.64
2017-10-03T00:55:30.557Z,16.56
2017-10-03T00:56:30.553Z,16.66
2017-10-03T00:57:30.560Z,16.68
2017-10-03T00:58:30.559Z,16.66
2017-10-03T00:59:30.241Z,16.68
2017-10-03T01:00:35.258Z,16.65
2017-10-03T01:01:30.558Z,16.69
2017-10-03T01:02:30.571Z,16.66
2017-10-03T01:03:30.246Z,16.66
2017-10-03T01:04:30.566Z,16.68
2017-10-03T01:05:30.255Z,16.66
2017-10-03T01:06:30.254Z,16.69
2017-10-03T01:07:30.868Z,16.69
2017-10-03T01:08:30.897Z,16.66
2017-10-03T01:09:30.561Z,16.57
2017-10-03T01:10:30.285Z,16.61
2017-10-03T01:11:30.248Z,16.64
2017-10-03T01:12:30.917Z,16.61
2017-10-03T01:13:30.562Z,16.64
2017-10-03T01:14:30.568Z,16.6
2017-10-03T01:15:30.920Z,16.58
2017-10-03T01:16:30.904Z,16.61
2017-10-03T01:17:30.920Z,16.58
2017-10-03T01:18:30.262Z,16.6
2017-10-03T01:19:30.571Z,16.58
2017-10-03T01:20:30.881Z,16.61
2017-10-03T01:21:30.264Z,16.57
2017-10-03T01:22:30.573Z,16.61
2017-10-03T01:23:30.261Z,16.61
2017-10-03T01:24:30.273Z,16.6
2017-10-03T01:25:30.906Z,16.57
2017-10-03T01:26:30.572Z,16.54
2017-10-03T01:27:30.576Z,16.58
2017-10-03T01:28:30.571Z,16.57
2017-10-03T01:29:30.902Z,16.51
2017-10-03T01:30:30.578Z,16.61
2017-10-03T01:31:30.588Z,16.64
2017-10-03T01:32:30.942Z,16.61
2017-10-03T01:33:30.906Z,16.66
2017-10-03T01:34:30.930Z,16.66
2017-10-03T01:35:30.904Z,16.66
2017-10-03T01:36:30.577Z,16.71
2017-10-03T01:37:30.586Z,16.68
2017-10-03T01:38:30.909Z,16.68
2017-10-03T01:39:30.574Z,16.61
2017-10-03T01:40:30.586Z,16.64
2017-10-03T01:41:30.580Z,16.66
2017-10-03T01:42:30.590Z,16.71
2017-10-03T01:43:30.933Z,16.64
2017-10-03T01:44:30.581Z,16.69
2017-10-03T01:45:30.594Z,16.66
2017-10-03T01:46:30.607Z,16.65
2017-10-03T01:47:30.588Z,16.69
2017-10-03T01:48:30.912Z,16.74
2017-10-03T01:49:30.273Z,16.66
2017-10-03T01:50:30.588Z,16.68
2017-10-03T01:51:30.919Z,16.66
2017-10-03T01:52:30.581Z,16.71
2017-10-03T01:53:30.279Z,16.76
2017-10-03T01:54:30.587Z,16.81
2017-10-03T01:55:30.590Z,16.75
2017-10-03T01:56:30.725Z,16.79
2017-10-03T01:57:30.611Z,16.86
2017-10-03T01:58:30.585Z,16.75
2017-10-03T01:59:30.590Z,16.75
2017-10-03T02:00:30.597Z,16.79
2017-10-03T02:01:34.584Z,16.78
2017-10-03T02:02:30.590Z,16.89
2017-10-03T02:03:30.595Z,16.71
2017-10-03T02:04:30.591Z,16.89
2017-10-03T02:05:30.594Z,16.76
2017-10-03T02:06:30.330Z,16.89
2017-10-03T02:07:30.291Z,16.89
2017-10-03T02:08:30.281Z,16.83
2017-10-03T02:09:30.596Z,16.89
2017-10-03T02:10:30.299Z,16.76
2017-10-03T02:11:30.597Z,16.84
2017-10-03T02:12:30.600Z,16.76
2017-10-03T02:13:30.921Z,16.78
2017-10-03T02:14:30.928Z,16.76
2017-10-03T02:15:30.798Z,16.87
2017-10-03T02:16:30.608Z,16.9
2017-10-03T02:17:30.639Z,16.81
2017-10-03T02:18:30.599Z,16.86
2017-10-03T02:19:30.611Z,16.89
2017-10-03T02:20:30.905Z,16.84
2017-10-03T02:21:30.902Z,16.89
2017-10-03T02:22:30.905Z,16.78
2017-10-03T02:23:30.597Z,16.87
2017-10-03T02:24:30.906Z,16.83
2017-10-03T02:25:30.601Z,16.87
2017-10-03T02:26:30.602Z,16.84
2017-10-03T02:27:30.600Z,16.86
2017-10-03T02:28:30.602Z,16.87
2017-10-03T02:29:30.936Z,16.87
2017-10-03T02:30:30.619Z,16.84
2017-10-03T02:31:30.954Z,16.89
2017-10-03T02:32:30.919Z,16.81
2017-10-03T02:33:30.914Z,16.81
2017-10-03T02:34:30.609Z,16.99
2017-10-03T02:35:30.919Z,16.83
2017-10-03T02:36:30.605Z,16.87
2017-10-03T02:37:30.914Z,16.81
2017-10-03T02:38:30.918Z,16.86
2017-10-03T02:39:30.924Z,16.87
2017-10-03T02:40:30.923Z,16.86
2017-10-03T02:41:30.306Z,16.94
2017-10-03T02:42:30.922Z,16.87
2017-10-03T02:43:30.612Z,16.89
2017-10-03T02:44:30.923Z,16.84
2017-10-03T02:45:30.618Z,16.79
2017-10-03T02:46:30.924Z,16.84
2017-10-03T02:47:30.920Z,16.75
2017-10-03T02:48:30.616Z,16.71
2017-10-03T02:49:30.615Z,16.84
2017-10-03T02:50:30.927Z,16.84
2017-10-03T02:51:30.928Z,16.87
2017-10-03T02:52:30.611Z,16.75
2017-10-03T02:53:30.931Z,16.75
2017-10-03T02:54:30.617Z,16.79
2017-10-03T02:55:30.621Z,16.83
2017-10-03T02:56:30.925Z,16.78
2017-10-03T02:57:30.619Z,16.72
2017-10-03T02:58:30.928Z,16.78
2017-10-03T02:59:30.628Z,16.81
2017-10-03T03:00:30.621Z,16.81
2017-10-03T03:01:30.934Z,16.81
2017-10-03T03:02:30.630Z,16.76
2017-10-03T03:03:30.322Z,16.76
2017-10-03T03:04:30.626Z,16.86
2017-10-03T03:05:30.939Z,16.83
2017-10-03T03:06:30.939Z,16.75
2017-10-03T03:07:30.940Z,16.83
2017-10-03T03:08:30.936Z,16.79
2017-10-03T03:09:30.984Z,16.81
2017-10-03T03:10:30.938Z,16.83
2017-10-03T03:11:30.633Z,16.79
2017-10-03T03:12:30.323Z,16.86
2017-10-03T03:13:30.631Z,16.84
2017-10-03T03:14:30.950Z,16.76
2017-10-03T03:15:31.225Z,16.87
2017-10-03T03:16:30.940Z,16.75
2017-10-03T03:17:30.940Z,16.72
2017-10-03T03:18:30.956Z,16.78
2017-10-03T03:19:30.949Z,16.81
2017-10-03T03:20:30.637Z,16.71
2017-10-03T03:21:30.648Z,16.84
2017-10-03T03:22:30.640Z,16.72
2017-10-03T03:23:30.637Z,16.74
2017-10-03T03:24:30.947Z,16.79
2017-10-03T03:25:30.643Z,16.75
2017-10-03T03:26:31.647Z,16.75
2017-10-03T03:27:30.947Z,16.87
2017-10-03T03:28:30.644Z,16.83
2017-10-03T03:29:30.648Z,16.75
2017-10-03T03:30:30.650Z,16.76
2017-10-03T03:31:30.643Z,16.79
2017-10-03T03:32:30.948Z,16.84
2017-10-03T03:33:30.953Z,16.76
2017-10-03T03:34:30.650Z,16.79
2017-10-03T03:35:30.647Z,16.71
2017-10-03T03:36:30.690Z,16.79
2017-10-03T03:37:30.957Z,16.75
2017-10-03T03:38:30.654Z,16.79
2017-10-03T03:39:30.960Z,16.79
2017-10-03T03:40:30.652Z,16.76
2017-10-03T03:41:30.652Z,16.76
2017-10-03T03:42:30.958Z,16.81
2017-10-03T03:43:30.350Z,16.54
2017-10-03T03:44:30.653Z,16.17
2017-10-03T03:45:30.960Z,15.68
2017-10-03T03:46:30.666Z,15.39
2017-10-03T03:47:30.986Z,15.04
2017-10-03T03:48:30.655Z,14.88
2017-10-03T03:49:30.962Z,14.59
2017-10-03T03:50:30.967Z,14.36
2017-10-03T03:51:30.657Z,14.25
2017-10-03T03:52:30.960Z,14.11
2017-10-03T03:53:30.651Z,14
2017-10-03T03:54:30.649Z,13.93
2017-10-03T03:55:30.962Z,13.83
2017-10-03T03:56:30.962Z,13.77
2017-10-03T03:57:30.963Z,13.78
2017-10-03T03:58:30.337Z,13.7
2017-10-03T03:59:30.952Z,13.65
2017-10-03T04:00:30.340Z,13.68
2017-10-03T04:01:30.949Z,13.59
2017-10-03T04:02:33.107Z,13.6
2017-10-03T04:03:30.955Z,13.6
2017-10-03T04:04:30.946Z,13.59
2017-10-03T04:05:30.331Z,13.54
2017-10-03T04:06:30.646Z,13.53
2017-10-03T04:07:30.321Z,13.54
2017-10-03T04:08:30.630Z,13.46
2017-10-03T04:09:30.933Z,13.47
2017-10-03T04:10:30.945Z,13.49
2017-10-03T04:11:30.944Z,13.46
2017-10-03T04:12:30.929Z,13.44
2017-10-03T04:13:30.623Z,13.46
2017-10-03T04:14:30.934Z,13.47
2017-10-03T04:15:30.929Z,13.49
2017-10-03T04:16:30.928Z,13.38
2017-10-03T04:17:30.634Z,13.38
2017-10-03T04:18:30.332Z,13.39
2017-10-03T04:19:30.921Z,13.44
2017-10-03T04:20:30.605Z,13.41
2017-10-03T04:21:30.913Z,13.39
2017-10-03T04:22:30.604Z,13.41
2017-10-03T04:23:30.631Z,13.39
2017-10-03T04:24:30.923Z,13.42
2017-10-03T04:25:30.611Z,13.46
2017-10-03T04:26:30.918Z,13.41
2017-10-03T04:27:30.603Z,13.3
2017-10-03T04:28:30.904Z,13.3
2017-10-03T04:29:30.588Z,13.28
2017-10-03T04:30:30.900Z,13.25
2017-10-03T04:31:30.591Z,13.18
2017-10-03T04:32:32.383Z,13.2
2017-10-03T04:33:30.902Z,13.22
2017-10-03T04:34:30.578Z,13.16
2017-10-03T04:35:30.764Z,13.09
2017-10-03T04:36:30.586Z,13.05
2017-10-03T04:37:30.884Z,13
2017-10-03T04:38:30.576Z,13.01
2017-10-03T04:39:30.906Z,13.01
2017-10-03T04:40:30.573Z,13
2017-10-03T04:41:30.576Z,12.97
2017-10-03T04:42:30.565Z,13.04
2017-10-03T04:43:30.871Z,13.03
2017-10-03T04:44:30.272Z,13
2017-10-03T04:45:30.273Z,13.03
2017-10-03T04:46:30.585Z,13.01
2017-10-03T04:47:30.587Z,12.94
2017-10-03T04:48:30.861Z,12.94
2017-10-03T04:49:30.858Z,12.97
2017-10-03T04:50:30.557Z,12.87
2017-10-03T04:51:30.562Z,12.93
2017-10-03T04:52:30.247Z,12.82
2017-10-03T04:53:30.846Z,12.9
2017-10-03T04:54:30.846Z,12.86
2017-10-03T04:55:30.551Z,12.79
2017-10-03T04:56:30.842Z,12.8
2017-10-03T04:57:30.847Z,12.76
2017-10-03T04:58:30.527Z,12.79
2017-10-03T04:59:30.837Z,12.83
2017-10-03T05:00:30.528Z,12.86
2017-10-03T05:01:30.837Z,12.86
2017-10-03T05:02:30.520Z,12.87
2017-10-03T05:03:30.850Z,12.8
2017-10-03T05:04:30.511Z,12.78
2017-10-03T05:05:30.840Z,12.76
2017-10-03T05:06:30.523Z,12.78
2017-10-03T05:07:30.505Z,12.76
2017-10-03T05:08:30.504Z,12.79
2017-10-03T05:09:30.810Z,12.73
2017-10-03T05:10:30.516Z,12.67
2017-10-03T05:11:30.818Z,12.67
2017-10-03T05:12:30.813Z,12.7
2017-10-03T05:13:30.205Z,12.7
2017-10-03T05:14:30.490Z,12.65
2017-10-03T05:15:30.813Z,12.64
2017-10-03T05:16:30.487Z,12.67
2017-10-03T05:17:30.810Z,12.61
2017-10-03T05:18:30.788Z,12.67
2017-10-03T05:19:30.791Z,12.54
2017-10-03T05:20:30.825Z,12.58
2017-10-03T05:21:30.788Z,12.61
2017-10-03T05:22:30.786Z,12.58
2017-10-03T05:23:30.180Z,12.53
2017-10-03T05:24:30.470Z,12.5
2017-10-03T05:25:30.471Z,12.61
2017-10-03T05:26:30.469Z,12.64
2017-10-03T05:27:30.464Z,12.65
2017-10-03T05:28:30.791Z,12.65
2017-10-03T05:29:30.536Z,12.61
2017-10-03T05:30:30.471Z,12.6
2017-10-03T05:31:30.767Z,12.55
2017-10-03T05:32:30.759Z,12.62
2017-10-03T05:33:30.753Z,12.62
2017-10-03T05:34:30.139Z,12.55
2017-10-03T05:35:30.456Z,12.61
2017-10-03T05:36:30.772Z,12.58
2017-10-03T05:37:30.755Z,12.54
2017-10-03T05:38:30.442Z,12.53
2017-10-03T05:39:30.761Z,12.58
2017-10-03T05:40:30.776Z,12.5
2017-10-03T05:41:30.438Z,12.49
2017-10-03T05:42:30.765Z,12.5
2017-10-03T05:43:30.764Z,12.54
2017-10-03T05:44:30.122Z,12.49
2017-10-03T05:45:30.728Z,12.55
2017-10-03T05:46:30.421Z,12.53
2017-10-03T05:47:30.729Z,12.54
2017-10-03T05:48:30.412Z,12.6
2017-10-03T05:49:30.415Z,12.55
2017-10-03T05:50:30.719Z,12.54
2017-10-03T05:51:30.412Z,12.7
2017-10-03T05:52:30.415Z,12.65
2017-10-03T05:53:30.710Z,12.64
2017-10-03T05:54:30.403Z,12.67
2017-10-03T05:55:30.405Z,12.57
2017-10-03T05:56:30.415Z,12.62
2017-10-03T05:57:30.703Z,12.55
2017-10-03T05:58:30.707Z,12.65
2017-10-03T05:59:30.709Z,12.61
2017-10-03T06:00:30.709Z,12.62
2017-10-03T06:01:30.707Z,12.7
2017-10-03T06:02:30.409Z,12.65
2017-10-03T06:03:33.560Z,12.7
2017-10-03T06:04:30.708Z,12.7
2017-10-03T06:05:30.080Z,12.62
2017-10-03T06:06:30.735Z,12.65
2017-10-03T06:07:30.381Z,12.68
2017-10-03T06:08:31.497Z,12.61
2017-10-03T06:09:30.371Z,12.68
2017-10-03T06:10:30.687Z,12.68
2017-10-03T06:11:30.679Z,12.6
2017-10-03T06:12:30.364Z,12.6
2017-10-03T06:13:30.676Z,12.58
2017-10-03T06:14:30.061Z,12.62
2017-10-03T06:15:30.369Z,12.61
2017-10-03T06:16:30.363Z,12.67
2017-10-03T06:17:30.673Z,12.55
2017-10-03T06:18:30.366Z,12.62
2017-10-03T06:19:30.661Z,12.62
2017-10-03T06:20:30.665Z,12.68
2017-10-03T06:21:30.656Z,12.68
2017-10-03T06:22:30.656Z,12.62
2017-10-03T06:23:30.652Z,12.57
2017-10-03T06:24:30.345Z,12.62
2017-10-03T06:25:30.658Z,12.67
2017-10-03T06:26:30.345Z,12.62
2017-10-03T06:27:30.345Z,12.67
2017-10-03T06:28:30.336Z,12.72
2017-10-03T06:29:30.337Z,12.64
2017-10-03T06:30:30.348Z,12.72
2017-10-03T06:31:30.639Z,12.67
2017-10-03T06:32:30.024Z,12.73
2017-10-03T06:33:32.747Z,12.72
2017-10-03T06:34:30.324Z,12.73
2017-10-03T06:35:30.331Z,12.75
2017-10-03T06:36:30.323Z,12.72
2017-10-03T06:37:30.324Z,12.73
2017-10-03T06:38:30.625Z,12.67
2017-10-03T06:39:30.624Z,12.75
2017-10-03T06:40:30.630Z,12.75
2017-10-03T06:41:30.317Z,12.67
2017-10-03T06:42:30.626Z,12.62
2017-10-03T06:43:30.316Z,12.68
2017-10-03T06:44:30.321Z,12.76
2017-10-03T06:45:30.625Z,12.78
2017-10-03T06:46:30.624Z,12.78
2017-10-03T06:47:30.322Z,12.83
2017-10-03T06:48:30.319Z,12.97
2017-10-03T06:49:30.608Z,13.01
2017-10-03T06:50:30.607Z,13.01
2017-10-03T06:51:30.609Z,13.01
2017-10-03T06:52:30.601Z,13
2017-10-03T06:53:29.982Z,13
2017-10-03T06:54:30.287Z,13.03
2017-10-03T06:55:30.601Z,13.11
2017-10-03T06:56:30.597Z,13.13
2017-10-03T06:57:30.633Z,13.08
2017-10-03T06:58:30.596Z,13.05
2017-10-03T06:59:30.621Z,13.05
2017-10-03T07:00:30.598Z,13.11
2017-10-03T07:01:30.587Z,13.01
2017-10-03T07:02:30.289Z,13.04
2017-10-03T07:03:30.284Z,13.12
2017-10-03T07:04:31.090Z,13.04
2017-10-03T07:05:29.965Z,13.09
2017-10-03T07:06:30.585Z,13.05
2017-10-03T07:07:30.581Z,13.04
2017-10-03T07:08:29.962Z,13.04
2017-10-03T07:09:30.574Z,13.18
2017-10-03T07:10:30.268Z,13.08
2017-10-03T07:11:30.575Z,13.05
2017-10-03T07:12:30.576Z,13.05
2017-10-03T07:13:30.585Z,13.08
2017-10-03T07:14:30.577Z,13.09
2017-10-03T07:15:29.959Z,13.12
2017-10-03T07:16:30.262Z,13.03
2017-10-03T07:17:30.567Z,13.12
2017-10-03T07:18:30.563Z,13.12
2017-10-03T07:19:30.252Z,13.13
2017-10-03T07:20:30.255Z,13.19
2017-10-03T07:21:30.560Z,13.22
2017-10-03T07:22:30.556Z,13.13
2017-10-03T07:23:30.249Z,13.12
2017-10-03T07:24:30.256Z,13.27
2017-10-03T07:25:30.554Z,13.27
2017-10-03T07:26:30.241Z,13.23
2017-10-03T07:27:30.548Z,13.23
2017-10-03T07:28:30.238Z,13.23
2017-10-03T07:29:30.547Z,13.23
2017-10-03T07:30:30.237Z,13.25
2017-10-03T07:31:30.543Z,13.19
2017-10-03T07:32:30.244Z,13.16
2017-10-03T07:33:30.548Z,13.2
2017-10-03T07:34:33.295Z,13.16
2017-10-03T07:35:30.558Z,13.12
2017-10-03T07:36:30.531Z,13.2
2017-10-03T07:37:30.224Z,13.22
2017-10-03T07:38:30.236Z,13.13
2017-10-03T07:39:30.240Z,13.16
2017-10-03T07:40:30.529Z,13.13
2017-10-03T07:41:30.218Z,13.25
2017-10-03T07:42:30.529Z,13.2
2017-10-03T07:43:30.528Z,13.09
2017-10-03T07:44:30.529Z,13.11
2017-10-03T07:45:30.533Z,13.18
2017-10-03T07:46:29.903Z,13.15
2017-10-03T07:47:30.216Z,13.01
2017-10-03T07:48:30.214Z,13.01
2017-10-03T07:49:30.514Z,13.04
2017-10-03T07:50:30.204Z,13.04
2017-10-03T07:51:30.204Z,13.05
2017-10-03T07:52:30.198Z,13.09
2017-10-03T07:53:30.512Z,13.18
2017-10-03T07:54:30.500Z,13.22
2017-10-03T07:55:30.204Z,13.19
2017-10-03T07:56:30.198Z,13.3
2017-10-03T07:57:30.534Z,13.38
2017-10-03T07:58:29.881Z,13.42
2017-10-03T07:59:30.189Z,13.49
2017-10-03T08:00:29.886Z,13.5
2017-10-03T08:01:30.192Z,13.54
2017-10-03T08:02:30.499Z,13.57
2017-10-03T08:03:30.188Z,13.65
2017-10-03T08:04:30.182Z,13.65
2017-10-03T08:05:30.189Z,13.83
2017-10-03T08:06:30.491Z,13.83
2017-10-03T08:07:30.488Z,14
2017-10-03T08:08:30.189Z,14.11
2017-10-03T08:09:30.209Z,14.2
2017-10-03T08:10:30.178Z,14.18
2017-10-03T08:11:30.184Z,14.26
2017-10-03T08:12:30.487Z,14.2
2017-10-03T08:13:30.486Z,14.29
2017-10-03T08:14:30.178Z,14.35
2017-10-03T08:15:30.176Z,14.36
2017-10-03T08:16:30.489Z,14.32
2017-10-03T08:17:30.487Z,14.26
2017-10-03T08:18:30.179Z,14.35
2017-10-03T08:19:30.484Z,14.35
2017-10-03T08:20:34.388Z,14.43
2017-10-03T08:21:30.168Z,14.36
2017-10-03T08:22:30.479Z,14.28
2017-10-03T08:23:30.478Z,14.32
2017-10-03T08:24:30.174Z,14.18
2017-10-03T08:25:30.183Z,14.36
2017-10-03T08:26:30.473Z,14.25
2017-10-03T08:27:30.163Z,14.32
2017-10-03T08:28:30.481Z,14.22
2017-10-03T08:29:30.222Z,14.28
2017-10-03T08:30:30.168Z,14.28
2017-10-03T08:31:30.167Z,14.33
2017-10-03T08:32:30.169Z,14.25
2017-10-03T08:33:30.164Z,14.32
2017-10-03T08:34:30.470Z,14.26
2017-10-03T08:35:31.570Z,14.26
2017-10-03T08:36:30.468Z,14.17
2017-10-03T08:37:30.162Z,14.26
2017-10-03T08:38:30.469Z,14.23
2017-10-03T08:39:30.163Z,14.28
2017-10-03T08:40:30.166Z,14.28
2017-10-03T08:41:30.171Z,14.4
2017-10-03T08:42:30.164Z,14.36
2017-10-03T08:43:30.465Z,14.53
2017-10-03T08:44:30.153Z,14.6
2017-10-03T08:45:30.467Z,14.55
2017-10-03T08:46:30.466Z,14.68
2017-10-03T08:47:30.174Z,14.62
2017-10-03T08:48:30.172Z,14.73
2017-10-03T08:49:30.185Z,14.72
2017-10-03T08:50:30.169Z,14.72
2017-10-03T08:51:30.181Z,14.72
2017-10-03T08:52:30.510Z,14.79
2017-10-03T08:53:29.858Z,14.81
2017-10-03T08:54:30.163Z,14.89
2017-10-03T08:55:30.467Z,15
2017-10-03T08:56:30.463Z,15.04
2017-10-03T08:57:29.852Z,15.27
2017-10-03T08:58:29.857Z,15.39
2017-10-03T08:59:30.163Z,15.59
2017-10-03T09:00:29.857Z,15.72
2017-10-03T09:01:30.159Z,15.82
2017-10-03T09:02:29.859Z,15.83
2017-10-03T09:03:30.162Z,15.84
2017-10-03T09:04:30.489Z,16
2017-10-03T09:05:29.876Z,15.88
2017-10-03T09:06:30.376Z,15.84
2017-10-03T09:07:30.475Z,15.8
2017-10-03T09:08:30.477Z,15.77
2017-10-03T09:09:30.165Z,15.55
2017-10-03T09:10:30.164Z,15.42
2017-10-03T09:11:30.170Z,15.47
2017-10-03T09:12:30.179Z,15.44
2017-10-03T09:13:30.476Z,15.4
2017-10-03T09:14:30.171Z,15.59
2017-10-03T09:15:30.164Z,15.55
2017-10-03T09:16:30.468Z,15.61
2017-10-03T09:17:30.165Z,15.73
2017-10-03T09:18:30.166Z,15.9
2017-10-03T09:19:30.470Z,16.04
2017-10-03T09:20:30.184Z,16.02
2017-10-03T09:21:30.172Z,16.16
2017-10-03T09:22:30.209Z,16.26
2017-10-03T09:23:30.472Z,16.28
2017-10-03T09:24:29.858Z,16.43
2017-10-03T09:25:30.171Z,16.35
2017-10-03T09:26:30.186Z,16.32
2017-10-03T09:27:30.486Z,16.35
2017-10-03T09:28:30.478Z,16.42
2017-10-03T09:29:30.477Z,16.35
2017-10-03T09:30:30.484Z,16.47
2017-10-03T09:31:30.171Z,16.47
2017-10-03T09:32:30.181Z,16.6
2017-10-03T09:33:30.173Z,16.69
2017-10-03T09:34:30.485Z,16.72
2017-10-03T09:35:30.175Z,16.84
2017-10-03T09:36:33.137Z,16.86
2017-10-03T09:37:30.488Z,16.96
2017-10-03T09:38:30.185Z,17.01
2017-10-03T09:39:29.870Z,16.99
2017-10-03T09:40:30.182Z,16.97
2017-10-03T09:41:30.503Z,16.93
2017-10-03T09:42:30.188Z,16.96
2017-10-03T09:43:30.497Z,17.08
2017-10-03T09:44:30.187Z,17.06
2017-10-03T09:45:30.187Z,16.91
2017-10-03T09:46:30.493Z,16.96
2017-10-03T09:47:30.504Z,17.06
2017-10-03T09:48:30.255Z,17.15
2017-10-03T09:49:30.506Z,17.2
2017-10-03T09:50:29.889Z,17.29
2017-10-03T09:51:29.899Z,17.3
2017-10-03T09:52:29.897Z,17.41
2017-10-03T09:53:30.508Z,17.41
2017-10-03T09:54:29.895Z,17.54
2017-10-03T09:55:30.206Z,17.36
2017-10-03T09:56:30.208Z,17.31
2017-10-03T09:57:30.519Z,17.19
2017-10-03T09:58:30.208Z,17.15
2017-10-03T09:59:30.514Z,17.12
2017-10-03T10:00:29.900Z,17.06
2017-10-03T10:01:30.224Z,16.97
2017-10-03T10:02:30.523Z,16.83
2017-10-03T10:03:30.212Z,16.89
2017-10-03T10:04:29.920Z,16.83
2017-10-03T10:05:30.236Z,16.75
2017-10-03T10:06:30.873Z,16.76
2017-10-03T10:07:30.528Z,16.83
2017-10-03T10:08:30.598Z,16.91
2017-10-03T10:09:30.246Z,16.99
2017-10-03T10:10:30.573Z,17.08
2017-10-03T10:11:30.262Z,17.2
2017-10-03T10:12:30.542Z,17.23
2017-10-03T10:13:30.234Z,17.16
2017-10-03T10:14:30.233Z,17.14
2017-10-03T10:15:30.239Z,16.93
2017-10-03T10:16:30.548Z,16.89
2017-10-03T10:17:30.554Z,16.87
2017-10-03T10:18:30.552Z,16.74
2017-10-03T10:19:30.291Z,16.61
2017-10-03T10:20:30.238Z,16.5
2017-10-03T10:21:30.550Z,16.46
2017-10-03T10:22:30.553Z,16.42
2017-10-03T10:23:30.244Z,16.39
2017-10-03T10:24:30.552Z,16.53
2017-10-03T10:25:30.259Z,16.64
2017-10-03T10:26:29.936Z,16.84
2017-10-03T10:27:30.251Z,16.93
2017-10-03T10:28:30.243Z,17.14
2017-10-03T10:29:30.248Z,17.38
2017-10-03T10:30:30.555Z,17.49
2017-10-03T10:31:29.944Z,17.39
2017-10-03T10:32:30.253Z,17.29
2017-10-03T10:33:30.247Z,17.38
2017-10-03T10:34:30.254Z,17.33
2017-10-03T10:35:30.273Z,17.26
2017-10-03T10:36:30.562Z,17.04
2017-10-03T10:37:30.790Z,16.99
2017-10-03T10:38:30.259Z,16.83
2017-10-03T10:39:30.278Z,16.74
2017-10-03T10:40:30.267Z,16.54
2017-10-03T10:41:30.569Z,16.43
2017-10-03T10:42:30.263Z,16.35
2017-10-03T10:43:30.571Z,16.16
2017-10-03T10:44:30.266Z,16.12
2017-10-03T10:45:30.574Z,16.17
2017-10-03T10:46:30.576Z,16.17
2017-10-03T10:47:30.267Z,16.08
2017-10-03T10:48:30.270Z,16.12
2017-10-03T10:49:30.576Z,16.05
2017-10-03T10:50:29.968Z,16.17
2017-10-03T10:51:30.573Z,16.08
2017-10-03T10:52:30.579Z,16.16
2017-10-03T10:53:30.269Z,16.16
2017-10-03T10:54:30.275Z,16.26
2017-10-03T10:55:30.275Z,16.31
2017-10-03T10:56:30.276Z,16.15
2017-10-03T10:57:29.972Z,16.31
2017-10-03T10:58:30.583Z,16.35
2017-10-03T10:59:30.583Z,16.35
2017-10-03T11:00:30.274Z,16.43
2017-10-03T11:01:30.279Z,16.53
2017-10-03T11:02:30.272Z,16.57
2017-10-03T11:03:30.591Z,16.72
2017-10-03T11:04:29.978Z,16.66
2017-10-03T11:05:30.589Z,16.76
2017-10-03T11:06:30.595Z,16.72
2017-10-03T11:07:30.924Z,16.78
2017-10-03T11:08:30.621Z,16.81
2017-10-03T11:09:30.594Z,16.76
2017-10-03T11:10:30.286Z,16.81
2017-10-03T11:11:30.035Z,16.84
2017-10-03T11:12:30.595Z,16.87
2017-10-03T11:13:30.288Z,16.94
2017-10-03T11:14:30.602Z,17.02
2017-10-03T11:15:30.291Z,17.11
2017-10-03T11:16:30.296Z,17.12
2017-10-03T11:17:30.302Z,17.2
2017-10-03T11:18:30.598Z,17.12
2017-10-03T11:19:30.293Z,17.15
2017-10-03T11:20:30.605Z,17.22
2017-10-03T11:21:30.607Z,17.22
2017-10-03T11:22:30.611Z,17.15
2017-10-03T11:23:30.303Z,17.08
2017-10-03T11:24:30.607Z,16.97
2017-10-03T11:25:30.609Z,16.81
2017-10-03T11:26:30.328Z,16.89
2017-10-03T11:27:29.999Z,16.86
2017-10-03T11:28:30.009Z,16.79
2017-10-03T11:29:30.614Z,16.75
2017-10-03T11:30:30.320Z,16.75
2017-10-03T11:31:30.611Z,16.81
2017-10-03T11:32:30.308Z,16.81
2017-10-03T11:33:30.617Z,16.79
2017-10-03T11:34:30.309Z,16.83
2017-10-03T11:35:30.004Z,16.87
2017-10-03T11:36:30.317Z,16.89
2017-10-03T11:37:30.624Z,16.78
2017-10-03T11:38:30.621Z,16.71
2017-10-03T11:39:30.623Z,16.58
2017-10-03T11:40:30.323Z,16.57
2017-10-03T11:41:30.627Z,16.49
2017-10-03T11:42:30.628Z,16.47
2017-10-03T11:43:30.012Z,16.51
2017-10-03T11:44:30.323Z,16.64
2017-10-03T11:45:30.630Z,16.71
2017-10-03T11:46:30.324Z,16.86
2017-10-03T11:47:30.630Z,16.83
2017-10-03T11:48:30.632Z,16.91
2017-10-03T11:49:30.340Z,16.94
2017-10-03T11:50:30.326Z,17.04
2017-10-03T11:51:30.327Z,16.96
2017-10-03T11:52:30.328Z,16.96
2017-10-03T11:53:30.330Z,16.96
2017-10-03T11:54:30.329Z,16.93
2017-10-03T11:55:30.334Z,17.05
2017-10-03T11:56:30.023Z,17.05
2017-10-03T11:57:30.643Z,17.12
2017-10-03T11:58:30.417Z,17.11
2017-10-03T11:59:30.675Z,17.15
2017-10-03T12:00:30.102Z,17.33
2017-10-03T12:01:30.644Z,17.38
2017-10-03T12:02:30.471Z,17.33
2017-10-03T12:03:30.349Z,17.3
2017-10-03T12:04:30.040Z,17.38
2017-10-03T12:05:30.351Z,17.34
2017-10-03T12:06:30.662Z,17.34
2017-10-03T12:07:30.355Z,17.34
2017-10-03T12:08:30.191Z,17.3
2017-10-03T12:09:30.660Z,17.31
2017-10-03T12:10:30.378Z,17.36
2017-10-03T12:11:30.042Z,17.33
2017-10-03T12:12:30.354Z,17.29
2017-10-03T12:13:31.167Z,17.2
2017-10-03T12:14:30.667Z,17.2
2017-10-03T12:15:30.681Z,17.23
2017-10-03T12:16:30.381Z,17.2
2017-10-03T12:17:30.668Z,17.24
2017-10-03T12:18:30.362Z,17.24
2017-10-03T12:19:30.380Z,17.15
2017-10-03T12:20:30.069Z,17.19
2017-10-03T12:21:30.057Z,17.19
2017-10-03T12:22:30.381Z,17.26
2017-10-03T12:23:30.385Z,17.34
2017-10-03T12:24:30.366Z,17.45
2017-10-03T12:25:30.697Z,17.59
2017-10-03T12:26:30.705Z,17.54
2017-10-03T12:27:30.384Z,17.63
2017-10-03T12:28:30.389Z,17.6
2017-10-03T12:29:30.393Z,17.65
2017-10-03T12:30:30.693Z,17.65
2017-10-03T12:31:30.389Z,17.64
2017-10-03T12:32:30.702Z,17.63
2017-10-03T12:33:30.693Z,17.59
2017-10-03T12:34:30.693Z,17.52
2017-10-03T12:35:30.391Z,17.45
2017-10-03T12:36:30.695Z,17.3
2017-10-03T12:37:30.389Z,17.44
2017-10-03T12:38:30.078Z,17.41
2017-10-03T12:39:30.395Z,17.54
2017-10-03T12:40:30.412Z,17.56
2017-10-03T12:41:30.717Z,17.68
2017-10-03T12:42:30.714Z,17.79
2017-10-03T12:43:30.402Z,17.89
2017-10-03T12:44:30.710Z,18.01
2017-10-03T12:45:30.414Z,18.08
2017-10-03T12:46:30.721Z,18.11
2017-10-03T12:47:30.404Z,18.26
2017-10-03T12:48:30.721Z,18.23
2017-10-03T12:49:30.415Z,18.26
2017-10-03T12:50:30.725Z,18.29
2017-10-03T12:51:30.722Z,18.34
2017-10-03T12:52:30.723Z,18.38
2017-10-03T12:53:30.102Z,18.33
2017-10-03T12:54:30.108Z,18.33
2017-10-03T12:55:30.729Z,18.34